Time;durP1;ratioP1;P1;durP2;ratioP2;P2;SDS_P1;SDS_P2;PMS_P1;PMS_P2;Temp;Humidity;BMP_temperature;BMP_pressure;BME280_temperature;BME280_humidity;BME280_pressure;Samples;Min_cycle;Max_cycle;Signal;HPM_P1;HPM_P2
2022/01/22 00:01:16;;;;;;;11.30;5.43;;;0.30;99.90;;;;;;5030436;28;20029;-77
2022/01/22 00:03:41;;;;;;;11.50;5.60;;;0.30;99.90;;;;;;5027776;28;20037;-77
2022/01/22 00:06:08;;;;;;;11.02;5.47;;;0.40;99.90;;;;;;5026900;28;20025;-77
2022/01/22 00:08:33;;;;;;;12.40;5.63;;;0.40;99.90;;;;;;5039247;28;20568;-77
2022/01/22 00:10:59;;;;;;;11.45;5.70;;;0.40;99.90;;;;;;5026900;28;20057;-77
2022/01/22 00:16:09;;;;;;;10.75;5.05;;;0.40;99.90;;;;;;5031799;28;20144;-77
2022/01/22 00:18:35;;;;;;;11.65;4.95;;;0.50;99.90;;;;;;5032377;28;20107;-77
2022/01/22 00:21:01;;;;;;;9.50;4.95;;;0.50;99.90;;;;;;5032994;28;20022;-77
2022/01/22 00:23:28;;;;;;;15.45;5.55;;;0.20;99.90;;;;;;5030969;28;20041;-77
2022/01/22 00:25:55;;;;;;;11.23;5.07;;;0.10;99.90;;;;;;5027018;28;20021;-77
2022/01/22 00:28:21;;;;;;;10.75;5.35;;;0.00;99.90;;;;;;5037373;28;20026;-77
2022/01/22 00:30:47;;;;;;;13.85;5.25;;;0.00;99.90;;;;;;5027781;28;20124;-77
2022/01/22 00:33:15;;;;;;;12.25;4.95;;;0.20;99.90;;;;;;5030651;28;20093;-77
2022/01/22 00:35:42;;;;;;;13.60;5.07;;;0.20;99.90;;;;;;5039556;28;20028;-77
2022/01/22 00:38:07;;;;;;;10.85;5.07;;;0.30;99.90;;;;;;5037042;28;20021;-77
2022/01/22 00:40:33;;;;;;;11.40;5.60;;;0.30;99.90;;;;;;5035564;28;20040;-77
2022/01/22 00:42:59;;;;;;;10.73;4.90;;;0.30;99.90;;;;;;5031556;28;20490;-77
2022/01/22 00:45:25;;;;;;;10.48;5.22;;;0.30;99.90;;;;;;5031078;28;20565;-77
2022/01/22 00:47:51;;;;;;;11.05;5.22;;;0.20;99.90;;;;;;5031695;28;20522;-77
2022/01/22 00:50:20;;;;;;;10.95;6.00;;;-0.10;99.90;;;;;;5031679;28;20045;-77
2022/01/22 00:52:46;;;;;;;14.70;5.80;;;0.00;99.90;;;;;;5032234;28;20100;-76
2022/01/22 00:55:13;;;;;;;11.95;5.88;;;0.10;99.90;;;;;;5034858;28;20117;-76
2022/01/22 00:57:39;;;;;;;14.93;6.20;;;0.20;99.90;;;;;;5029931;28;20033;-76
2022/01/22 01:00:08;;;;;;;13.90;5.97;;;0.10;99.90;;;;;;5034318;28;20310;-76
2022/01/22 01:02:35;;;;;;;13.35;5.53;;;0.20;99.90;;;;;;5030587;28;20074;-76
2022/01/22 01:05:01;;;;;;;12.40;5.85;;;0.20;99.90;;;;;;5030565;28;20029;-77
2022/01/22 01:07:27;;;;;;;9.77;5.15;;;0.10;99.90;;;;;;5033210;28;20237;-77
2022/01/22 01:09:53;;;;;;;12.70;5.50;;;0.10;99.90;;;;;;5030930;28;20064;-77
2022/01/22 01:12:18;;;;;;;8.80;4.43;;;0.00;99.90;;;;;;5031350;28;20017;-76
2022/01/22 01:14:55;;;;;;;9.60;5.00;;;0.10;99.90;;;;;;5028844;28;20124;-76
2022/01/22 01:17:47;;;;;;;9.82;4.70;;;0.10;99.90;;;;;;5035496;28;20066;-76
2022/01/22 01:36:22;;;;;;;7.78;4.13;;;0.20;99.90;;;;;;5036493;28;20026;-77
2022/01/22 01:38:53;;;;;;;10.18;4.10;;;0.30;99.90;;;;;;5034976;28;20100;-77
2022/01/22 01:43:54;;;;;;;7.55;3.70;;;0.10;99.90;;;;;;5030871;28;20293;-77
2022/01/22 01:46:20;;;;;;;6.13;3.40;;;0.10;99.90;;;;;;5032489;28;20057;-77
2022/01/22 01:48:46;;;;;;;5.28;3.25;;;0.10;99.90;;;;;;5030488;28;20104;-77
2022/01/22 01:51:12;;;;;;;6.05;3.33;;;0.10;99.90;;;;;;5030681;28;20018;-77
2022/01/22 01:58:55;;;;;;;8.82;3.80;;;-0.10;99.90;;;;;;5034908;28;19950;-77
2022/01/22 02:01:21;;;;;;;5.05;2.90;;;-0.10;99.90;;;;;;5030576;28;20040;-77
2022/01/22 02:03:48;;;;;;;5.60;3.17;;;-0.10;99.90;;;;;;5029734;28;20803;-77
2022/01/22 02:06:14;;;;;;;5.72;3.33;;;-0.10;99.90;;;;;;5029171;28;20037;-77
2022/01/22 02:08:40;;;;;;;6.68;3.22;;;-0.20;99.90;;;;;;5028686;28;20025;-77
2022/01/22 02:11:07;;;;;;;6.65;3.67;;;-0.30;99.90;;;;;;5030557;28;20026;-77
2022/01/22 02:24:49;;;;;;;8.30;3.78;;;-0.20;99.90;;;;;;5029185;28;20391;-77
2022/01/22 02:27:16;;;;;;;3.88;2.80;;;-0.20;99.90;;;;;;5029772;28;20064;-78
2022/01/22 02:29:42;;;;;;;5.63;2.80;;;-0.20;99.90;;;;;;5028647;28;20290;-78
2022/01/22 02:34:48;;;;;;;5.35;2.95;;;-0.40;99.90;;;;;;5036218;28;20021;-77
2022/01/22 02:37:17;;;;;;;5.30;2.95;;;-0.60;99.90;;;;;;5030815;28;20025;-78
2022/01/22 02:39:57;;;;;;;5.15;2.97;;;-0.60;99.90;;;;;;5028425;28;20047;-78
2022/01/22 02:42:28;;;;;;;6.82;2.90;;;-0.50;99.90;;;;;;5029567;28;20052;-78
2022/01/22 02:44:54;;;;;;;5.30;2.38;;;-0.40;99.90;;;;;;5029627;28;20040;-78
2022/01/22 02:47:20;;;;;;;4.53;2.38;;;-0.40;99.90;;;;;;5028867;28;20494;-78
2022/01/22 02:49:46;;;;;;;3.40;2.45;;;-0.40;99.90;;;;;;5029698;28;20048;-79
2022/01/22 02:52:12;;;;;;;4.78;2.90;;;-0.30;99.90;;;;;;5033110;28;20044;-78
2022/01/22 02:54:39;;;;;;;5.95;2.85;;;-0.40;99.90;;;;;;5032689;28;20069;-78
2022/01/22 02:57:06;;;;;;;3.63;2.75;;;-0.90;99.90;;;;;;5034158;28;20084;-78
2022/01/22 02:59:32;;;;;;;5.13;2.30;;;-1.00;99.90;;;;;;5030927;28;20039;-79
2022/01/22 03:02:00;;;;;;;4.97;2.63;;;-0.90;99.90;;;;;;5028042;28;20116;-78
2022/01/22 03:04:25;;;;;;;4.07;2.45;;;-0.90;99.90;;;;;;5030408;28;20020;-79
2022/01/22 03:06:51;;;;;;;4.82;3.20;;;-0.90;99.90;;;;;;5028943;28;20033;-78
2022/01/22 03:09:18;;;;;;;5.95;2.70;;;-0.90;99.90;;;;;;5028983;28;20104;-78
2022/01/22 03:12:12;;;;;;;6.50;3.00;;;-0.70;99.90;;;;;;5028985;28;20025;-79
2022/01/22 03:22:22;;;;;;;3.85;3.08;;;-0.90;99.90;;;;;;5029754;28;20033;-78
2022/01/22 03:27:33;;;;;;;3.15;2.50;;;-0.70;99.90;;;;;;5028630;28;20078;-78
2022/01/22 03:30:00;;;;;;;4.85;2.67;;;-0.60;99.90;;;;;;5028799;28;20021;-78
2022/01/22 03:32:30;;;;;;;6.05;2.30;;;-0.70;99.90;;;;;;5035357;28;20171;-78
2022/01/22 03:34:59;;;;;;;3.63;2.38;;;-0.70;99.90;;;;;;5031786;28;20025;-78
2022/01/22 03:37:26;;;;;;;4.97;2.63;;;-0.80;99.90;;;;;;5030102;28;20018;-78
2022/01/22 03:39:52;;;;;;;3.90;2.67;;;-0.70;99.90;;;;;;5026533;28;20056;-78
2022/01/22 03:42:18;;;;;;;3.17;2.33;;;-0.60;99.90;;;;;;5028751;28;20072;-78
2022/01/22 03:44:44;;;;;;;4.57;2.65;;;-0.60;99.90;;;;;;5028275;28;20506;-78
2022/01/22 03:47:10;;;;;;;4.32;2.63;;;-0.70;99.90;;;;;;5027477;28;20573;-78
2022/01/22 03:49:35;;;;;;;4.72;2.42;;;-0.70;99.90;;;;;;5029995;28;20036;-78
2022/01/22 03:52:01;;;;;;;4.15;2.80;;;-0.80;99.90;;;;;;5028004;28;20714;-78
2022/01/22 03:54:27;;;;;;;4.53;2.60;;;-0.80;99.90;;;;;;5032950;28;20022;-77
2022/01/22 03:56:53;;;;;;;3.90;2.58;;;-0.80;99.90;;;;;;5031463;28;20030;-77
2022/01/22 03:59:19;;;;;;;4.78;2.83;;;-1.00;99.90;;;;;;5026915;28;20490;-77
2022/01/22 04:05:01;;;;;;;5.35;3.20;;;-1.00;99.90;;;;;;5028433;28;20029;-77
2022/01/22 04:09:59;;;;;;;5.88;3.17;;;-1.10;99.90;;;;;;5027864;28;20021;-77
2022/01/22 04:12:38;;;;;;;4.43;2.78;;;-0.90;99.90;;;;;;5022661;28;20035;-77
2022/01/22 04:15:06;;;;;;;4.80;2.80;;;-0.90;99.90;;;;;;5027542;28;20486;-77
2022/01/22 04:25:36;;;;;;;4.47;2.40;;;-0.90;99.90;;;;;;5028973;28;20580;-77
2022/01/22 04:28:02;;;;;;;4.93;2.80;;;-1.00;99.90;;;;;;5028309;28;20033;-76
2022/01/22 04:30:28;;;;;;;5.50;2.70;;;-1.00;99.90;;;;;;5028038;28;20029;-76
2022/01/22 04:32:55;;;;;;;6.50;3.33;;;-1.00;99.90;;;;;;5027880;28;20486;-76
2022/01/22 04:35:24;;;;;;;6.20;3.20;;;-1.00;99.90;;;;;;5031113;28;20040;-76
2022/01/22 04:37:50;;;;;;;4.72;2.78;;;-1.50;99.90;;;;;;5028473;28;20490;-76
2022/01/22 04:40:16;;;;;;;7.32;3.65;;;-1.40;99.90;;;;;;5029613;28;20026;-76
2022/01/22 04:42:43;;;;;;;4.50;2.97;;;-1.10;99.90;;;;;;5028364;28;20030;-76
2022/01/22 04:47:51;;;;;;;4.07;2.92;;;-1.20;99.90;;;;;;5028219;28;20041;-76
2022/01/22 04:55:34;;;;;;;5.85;2.97;;;-1.10;99.90;;;;;;5028789;28;20014;-76
2022/01/22 04:58:03;;;;;;;5.00;2.95;;;-1.10;99.90;;;;;;5027484;28;20029;-76
2022/01/22 05:00:37;;;;;;;4.53;2.70;;;-1.10;99.90;;;;;;5027559;28;20018;-76
2022/01/22 05:03:03;;;;;;;4.38;2.78;;;-1.20;99.90;;;;;;5027929;28;20051;-76
2022/01/22 05:05:31;;;;;;;3.90;3.05;;;-1.10;99.90;;;;;;5027504;28;20021;-76
2022/01/22 05:07:57;;;;;;;11.07;4.03;;;-1.10;99.90;;;;;;5027565;28;20021;-76
2022/01/22 05:10:23;;;;;;;5.88;2.97;;;-1.40;99.90;;;;;;5029991;28;20279;-76
2022/01/22 05:12:49;;;;;;;6.03;3.35;;;-1.30;99.90;;;;;;5030117;28;20029;-75
2022/01/22 05:15:17;;;;;;;8.60;3.47;;;-1.30;99.90;;;;;;5029950;28;20025;-76
2022/01/22 05:17:44;;;;;;;5.85;3.38;;;-1.60;99.90;;;;;;5031717;28;20029;-75
2022/01/22 05:25:15;;;;;;;5.20;3.33;;;-1.40;99.90;;;;;;5031649;28;20033;-75
2022/01/22 05:38:20;;;;;;;7.10;3.03;;;-1.30;99.90;;;;;;5011166;28;20025;-75
2022/01/22 05:40:46;;;;;;;5.65;3.25;;;-1.30;99.90;;;;;;5012687;28;20129;-75
2022/01/22 05:43:12;;;;;;;7.78;3.28;;;-1.40;99.90;;;;;;5014253;28;20064;-75
2022/01/22 05:45:38;;;;;;;4.78;3.38;;;-1.70;99.90;;;;;;5012833;28;20080;-75
2022/01/22 05:48:04;;;;;;;7.03;3.40;;;-1.70;99.90;;;;;;5015948;28;20116;-75
2022/01/22 05:50:34;;;;;;;5.22;2.80;;;-1.50;99.90;;;;;;5024260;28;20488;-75
2022/01/22 05:53:05;;;;;;;5.80;3.33;;;-1.40;99.90;;;;;;5027149;28;20036;-75
2022/01/22 06:00:41;;;;;;;6.38;3.00;;;-1.40;99.90;;;;;;5012948;28;20085;-75
2022/01/22 06:03:07;;;;;;;5.28;3.67;;;-1.30;99.90;;;;;;5012034;28;20026;-75
2022/01/22 06:05:33;;;;;;;4.57;2.58;;;-1.40;99.90;;;;;;4994601;28;20069;-75
2022/01/22 06:07:58;;;;;;;6.40;2.78;;;-1.30;99.90;;;;;;5002045;28;20503;-75
2022/01/22 06:10:29;;;;;;;5.00;2.67;;;-1.30;99.90;;;;;;5027123;28;20036;-75
2022/01/22 06:13:10;;;;;;;3.78;2.47;;;-1.30;99.90;;;;;;5023547;28;20133;-75
2022/01/22 06:15:36;;;;;;;3.50;2.53;;;-1.40;99.90;;;;;;5029991;28;20138;-75
2022/01/22 06:18:02;;;;;;;4.03;2.78;;;-1.40;99.90;;;;;;5029980;28;20490;-75
2022/01/22 06:20:28;;;;;;;4.00;2.65;;;-1.40;99.90;;;;;;5028707;28;20030;-75
2022/01/22 06:22:53;;;;;;;5.05;3.20;;;-1.50;99.90;;;;;;5029319;28;20033;-75
2022/01/22 06:25:19;;;;;;;6.22;3.72;;;-1.50;99.90;;;;;;5031135;28;20025;-75
2022/01/22 06:27:45;;;;;;;5.00;3.10;;;-1.40;99.90;;;;;;5033080;28;20502;-75
2022/01/22 06:30:11;;;;;;;3.80;2.67;;;-1.40;99.90;;;;;;5028666;28;20029;-75
2022/01/22 06:32:37;;;;;;;6.18;3.20;;;-1.40;99.90;;;;;;5034078;28;20026;-75
2022/01/22 06:35:03;;;;;;;3.88;2.80;;;-1.40;99.90;;;;;;5028718;28;20100;-75
2022/01/22 06:37:29;;;;;;;6.95;3.33;;;-1.40;99.90;;;;;;5031599;28;20029;-75
2022/01/22 06:42:33;;;;;;;11.15;4.75;;;-1.50;99.90;;;;;;5034600;28;20037;-75
2022/01/22 06:45:01;;;;;;;10.27;5.00;;;-1.50;99.90;;;;;;5027553;28;20029;-75
2022/01/22 06:47:27;;;;;;;10.80;4.95;;;-1.60;99.90;;;;;;5036424;28;20037;-75
2022/01/22 06:49:54;;;;;;;17.10;5.95;;;-1.60;99.90;;;;;;5029845;28;20021;-75
2022/01/22 06:52:19;;;;;;;15.40;6.35;;;-2.00;99.90;;;;;;5031617;28;20048;-75
2022/01/22 06:54:46;;;;;;;13.02;5.97;;;-2.00;99.90;;;;;;5031905;28;20486;-75
2022/01/22 06:57:12;;;;;;;11.93;5.45;;;-2.10;99.90;;;;;;5029564;28;20131;-75
2022/01/22 06:59:38;;;;;;;13.85;5.75;;;-1.90;99.90;;;;;;5029127;28;20099;-75
2022/01/22 07:02:04;;;;;;;11.50;5.07;;;-1.60;99.90;;;;;;5028942;28;20589;-75
2022/01/22 07:04:31;;;;;;;11.38;5.85;;;-1.80;99.90;;;;;;5031015;28;20030;-75
2022/01/22 07:06:57;;;;;;;10.90;5.68;;;-1.70;99.90;;;;;;5029413;28;20025;-75
2022/01/22 07:09:23;;;;;;;10.27;4.80;;;-1.70;99.90;;;;;;5034813;28;20021;-74
2022/01/22 07:11:49;;;;;;;9.38;4.90;;;-1.60;99.90;;;;;;5033055;28;20075;-75
2022/01/22 07:14:16;;;;;;;9.60;4.60;;;-1.60;99.90;;;;;;5024215;28;20026;-75
2022/01/22 07:16:41;;;;;;;8.90;4.97;;;-1.60;99.90;;;;;;5031722;28;20100;-75
2022/01/22 07:19:08;;;;;;;9.73;4.35;;;-1.50;99.90;;;;;;5028669;28;20120;-75
2022/01/22 07:21:36;;;;;;;8.80;4.70;;;-1.70;99.90;;;;;;5029317;28;20025;-74
2022/01/22 07:26:28;;;;;;;8.95;4.80;;;-1.70;99.90;;;;;;5029150;28;20025;-74
2022/01/22 07:28:54;;;;;;;7.53;3.95;;;-1.70;99.90;;;;;;5033135;28;20086;-75
2022/01/22 07:31:24;;;;;;;12.35;5.00;;;-1.70;99.90;;;;;;5030964;28;20022;-74
2022/01/22 07:33:51;;;;;;;8.98;4.25;;;-1.60;99.90;;;;;;5031766;28;20025;-74
2022/01/22 07:36:16;;;;;;;7.82;3.72;;;-1.70;99.90;;;;;;5028639;28;20022;-74
2022/01/22 07:38:42;;;;;;;6.22;4.05;;;-1.60;99.90;;;;;;5027359;28;20032;-74
2022/01/22 07:41:08;;;;;;;7.97;4.20;;;-1.90;99.90;;;;;;5028463;28;20022;-74
2022/01/22 07:43:38;;;;;;;6.55;3.70;;;-1.90;99.90;;;;;;5028708;28;20087;-74
2022/01/22 07:46:05;;;;;;;6.10;4.40;;;-1.90;99.90;;;;;;5028492;28;20072;-74
2022/01/22 07:48:31;;;;;;;8.30;4.82;;;-1.90;99.90;;;;;;5023920;28;20063;-74
2022/01/22 07:50:57;;;;;;;6.43;3.60;;;-1.60;99.90;;;;;;5027714;28;20029;-75
2022/01/22 07:53:24;;;;;;;7.95;4.25;;;-1.60;99.90;;;;;;5028185;28;20096;-75
2022/01/22 07:55:51;;;;;;;6.63;4.22;;;-1.50;99.90;;;;;;5029145;28;20025;-74
2022/01/22 07:58:16;;;;;;;10.80;5.22;;;-1.50;99.90;;;;;;5027576;28;20026;-74
2022/01/22 08:00:42;;;;;;;11.25;5.22;;;-1.50;99.90;;;;;;5027962;28;20518;-74
2022/01/22 08:03:09;;;;;;;12.20;6.05;;;-1.50;99.90;;;;;;5019777;28;20025;-74
2022/01/22 08:05:35;;;;;;;10.82;5.50;;;-0.80;99.90;;;;;;5027772;28;20274;-75
2022/01/22 08:08:01;;;;;;;9.80;5.25;;;0.90;99.90;;;;;;5032364;28;20047;-75
2022/01/22 08:10:27;;;;;;;10.15;5.50;;;0.90;99.90;;;;;;5028606;28;20495;-74
2022/01/22 08:12:53;;;;;;;14.15;7.10;;;1.00;99.90;;;;;;5027894;28;20025;-74
2022/01/22 08:15:20;;;;;;;13.98;7.18;;;0.60;99.90;;;;;;5027757;28;20475;-74
2022/01/22 08:17:46;;;;;;;15.07;6.78;;;0.30;99.90;;;;;;5033210;28;20108;-75
2022/01/22 08:20:14;;;;;;;18.65;9.38;;;0.50;99.90;;;;;;5016803;28;20087;-74
2022/01/22 08:22:41;;;;;;;23.42;9.57;;;0.80;99.90;;;;;;5030335;28;20112;-75
2022/01/22 08:25:08;;;;;;;21.58;8.65;;;1.40;99.90;;;;;;5027919;28;20026;-75
2022/01/22 08:27:41;;;;;;;21.80;9.98;;;0.80;99.90;;;;;;5027736;28;20033;-75
2022/01/22 08:30:09;;;;;;;25.20;11.13;;;0.70;99.90;;;;;;5026556;28;20034;-75
2022/01/22 08:37:45;;;;;;;21.15;11.23;;;0.50;99.90;;;;;;5028047;28;20044;-75
2022/01/22 08:40:12;;;;;;;23.42;10.90;;;1.40;99.90;;;;;;5029467;28;20021;-75
2022/01/22 08:42:38;;;;;;;23.05;11.35;;;1.20;99.90;;;;;;5027188;28;20030;-75
2022/01/22 08:45:05;;;;;;;28.02;12.32;;;1.60;99.90;;;;;;5028049;28;20517;-75
2022/01/22 08:47:30;;;;;;;25.15;12.15;;;1.90;99.90;;;;;;5026154;28;20034;-75
2022/01/22 08:49:56;;;;;;;23.15;12.63;;;2.80;99.90;;;;;;5028728;28;20102;-75
2022/01/22 08:52:26;;;;;;;29.02;13.32;;;4.70;99.90;;;;;;5033665;28;20032;-75
2022/01/22 08:54:52;;;;;;;22.20;12.03;;;4.60;99.90;;;;;;5030305;28;20068;-75
2022/01/22 08:57:18;;;;;;;17.35;10.45;;;3.80;99.90;;;;;;5026935;28;20021;-75
2022/01/22 08:59:44;;;;;;;18.67;9.60;;;3.20;99.90;;;;;;5031673;28;20494;-75
2022/01/22 09:02:10;;;;;;;14.25;8.50;;;5.80;99.90;;;;;;5032941;28;20032;-75
2022/01/22 09:04:36;;;;;;;16.17;9.25;;;7.90;97.60;;;;;;5036466;28;20070;-75
2022/01/22 09:07:03;;;;;;;14.32;8.32;;;7.40;97.00;;;;;;5031352;28;20056;-75
2022/01/22 09:09:29;;;;;;;14.30;7.80;;;8.00;96.20;;;;;;5030861;28;20033;-75
2022/01/22 09:11:55;;;;;;;13.98;7.95;;;6.80;96.30;;;;;;5031201;28;20028;-75
2022/01/22 09:14:21;;;;;;;17.25;7.80;;;5.70;98.50;;;;;;5033234;28;20032;-75
2022/01/22 09:16:48;;;;;;;13.35;7.47;;;4.30;99.90;;;;;;5032445;28;20018;-75
2022/01/22 09:19:15;;;;;;;13.25;7.10;;;3.50;99.90;;;;;;5030670;28;20040;-75
2022/01/22 09:21:47;;;;;;;14.68;7.13;;;4.60;99.90;;;;;;5031137;28;20096;-76
2022/01/22 09:24:15;;;;;;;12.00;6.55;;;5.80;99.60;;;;;;5035425;28;20037;-75
2022/01/22 09:26:42;;;;;;;12.98;7.35;;;6.50;99.00;;;;;;5035262;28;20029;-75
2022/01/22 09:29:08;;;;;;;15.02;7.93;;;5.60;98.70;;;;;;5031426;28;20076;-75
2022/01/22 09:31:34;;;;;;;14.82;8.27;;;5.20;99.70;;;;;;5031548;28;20454;-75
2022/01/22 09:34:01;;;;;;;14.07;7.82;;;6.60;99.70;;;;;;5029617;28;20109;-75
2022/01/22 09:36:29;;;;;;;13.43;7.53;;;8.70;96.50;;;;;;5031095;28;20502;-79
2022/01/22 09:38:56;;;;;;;12.25;7.45;;;7.00;96.60;;;;;;5028751;28;20120;-76
2022/01/22 09:41:24;;;;;;;12.27;7.03;;;4.80;99.70;;;;;;5030972;28;20493;-76
2022/01/22 09:43:50;;;;;;;12.45;6.25;;;4.00;99.90;;;;;;5030538;28;20033;-75
2022/01/22 09:46:16;;;;;;;12.32;5.65;;;3.40;99.90;;;;;;5031979;28;20064;-76
2022/01/22 09:48:45;;;;;;;10.65;6.15;;;3.60;99.90;;;;;;5030163;28;20040;-76
2022/01/22 09:51:11;;;;;;;9.43;5.63;;;3.50;99.90;;;;;;5030185;28;20025;-76
2022/01/22 09:53:40;;;;;;;11.25;5.85;;;3.40;99.90;;;;;;5028063;28;20025;-76
2022/01/22 09:56:06;;;;;;;12.77;5.90;;;3.40;99.90;;;;;;5028854;28;20039;-76
2022/01/22 09:58:32;;;;;;;10.40;5.90;;;3.40;99.90;;;;;;5033176;28;20036;-76
2022/01/22 10:01:37;;;;;;;11.07;5.60;;;3.40;99.90;;;;;;5026534;28;20030;-76
2022/01/22 10:04:05;;;;;;;12.57;5.80;;;3.40;99.90;;;;;;5050158;28;20621;-76
2022/01/22 10:06:33;;;;;;;10.40;5.78;;;3.10;99.90;;;;;;5031037;28;20031;-76
2022/01/22 10:09:09;;;;;;;14.93;6.20;;;3.10;99.90;;;;;;5047477;28;20076;-76
2022/01/22 10:11:35;;;;;;;16.25;7.13;;;2.80;99.90;;;;;;5048096;28;20084;-76
2022/01/22 10:14:01;;;;;;;13.05;6.50;;;2.60;99.90;;;;;;5047409;28;20025;-76
2022/01/22 10:16:29;;;;;;;12.40;7.10;;;2.40;99.90;;;;;;5035584;28;20075;-76
2022/01/22 10:19:17;;;;;;;9.73;5.75;;;2.70;99.90;;;;;;5050546;28;20464;-76
2022/01/22 10:21:48;;;;;;;12.38;5.60;;;3.00;99.90;;;;;;5049313;28;20057;-76
2022/01/22 10:24:26;;;;;;;13.02;6.28;;;3.40;99.90;;;;;;5047197;28;20033;-76
2022/01/22 10:27:39;;;;;;;11.18;6.25;;;3.70;99.90;;;;;;5047701;28;20067;-76
2022/01/22 10:30:10;;;;;;;12.13;5.75;;;3.50;99.90;;;;;;5005042;28;20613;-76
2022/01/22 10:32:51;;;;;;;11.52;5.88;;;3.50;99.90;;;;;;5007265;28;20029;-76
2022/01/22 10:35:23;;;;;;;11.40;5.60;;;3.50;99.90;;;;;;4998543;28;20134;-76
2022/01/22 10:38:01;;;;;;;9.98;5.43;;;3.50;99.90;;;;;;4996723;28;20038;-76
2022/01/22 10:40:38;;;;;;;12.32;6.40;;;3.40;99.90;;;;;;4990627;28;20129;-76
2022/01/22 10:46:41;;;;;;;9.05;5.75;;;3.70;99.90;;;;;;4995993;28;20057;-76
2022/01/22 10:49:16;;;;;;;11.20;5.43;;;3.70;99.90;;;;;;5003162;28;20033;-76
2022/01/22 10:52:00;;;;;;;10.88;5.72;;;3.60;99.90;;;;;;5002701;28;20199;-76
2022/01/22 10:54:32;;;;;;;11.48;5.70;;;3.50;99.90;;;;;;5001337;28;20034;-76
2022/01/22 10:57:19;;;;;;;8.40;4.55;;;3.50;99.90;;;;;;5003370;28;20041;-77
2022/01/22 10:59:50;;;;;;;7.97;5.57;;;3.50;99.90;;;;;;5006855;28;20038;-76
2022/01/22 11:02:20;;;;;;;10.40;5.82;;;3.60;99.90;;;;;;5035641;28;20092;-75
2022/01/22 11:04:46;;;;;;;7.80;4.50;;;3.60;99.90;;;;;;5044653;28;20029;-75
2022/01/22 11:07:17;;;;;;;8.25;5.03;;;3.80;99.90;;;;;;5045636;28;20208;-75
2022/01/22 11:09:43;;;;;;;9.52;4.10;;;3.90;99.90;;;;;;5029685;28;20033;-75
2022/01/22 11:12:09;;;;;;;8.35;4.25;;;3.90;99.90;;;;;;5030215;28;20033;-75
2022/01/22 11:14:37;;;;;;;8.38;4.93;;;4.00;99.90;;;;;;5044995;28;20036;-75
2022/01/22 11:17:05;;;;;;;6.68;4.93;;;4.00;99.90;;;;;;5047155;28;20134;-75
2022/01/22 11:19:33;;;;;;;6.70;3.80;;;3.90;99.90;;;;;;5048332;28;21081;-75
2022/01/22 11:22:08;;;;;;;8.80;4.38;;;3.80;99.90;;;;;;5046638;28;20574;-75
2022/01/22 11:24:38;;;;;;;6.20;3.75;;;3.80;99.90;;;;;;5037400;28;20038;-75
2022/01/22 11:27:06;;;;;;;6.38;4.10;;;3.80;99.90;;;;;;5027005;28;20018;-75
2022/01/22 11:29:36;;;;;;;7.45;3.45;;;3.80;99.90;;;;;;5027038;28;20033;-75
2022/01/22 11:32:08;;;;;;;7.82;4.05;;;3.80;99.90;;;;;;5023850;28;20113;-75
2022/01/22 11:34:36;;;;;;;6.57;3.30;;;3.90;99.90;;;;;;5029689;28;20052;-75
2022/01/22 11:37:15;;;;;;;7.85;3.63;;;4.00;99.90;;;;;;5024593;28;20131;-75
2022/01/22 11:39:41;;;;;;;8.95;3.95;;;3.90;99.90;;;;;;5024653;28;20037;-75
2022/01/22 11:42:08;;;;;;;5.25;3.10;;;3.90;99.90;;;;;;5028417;28;20100;-75
2022/01/22 11:44:50;;;;;;;8.43;3.60;;;3.90;99.90;;;;;;5026956;28;20104;-75
2022/01/22 11:47:22;;;;;;;11.73;3.88;;;3.90;99.90;;;;;;5028397;28;20522;-75
2022/01/22 11:50:10;;;;;;;9.23;4.90;;;4.20;99.90;;;;;;5027150;28;20080;-75
2022/01/22 11:52:42;;;;;;;7.18;4.35;;;5.00;99.90;;;;;;5038507;28;20426;-75
2022/01/22 11:55:17;;;;;;;8.20;4.00;;;4.80;99.90;;;;;;5030148;28;20021;-75
2022/01/22 11:57:45;;;;;;;8.20;4.63;;;4.50;99.90;;;;;;5028001;28;20040;-75
2022/01/22 12:00:28;;;;;;;10.70;5.35;;;4.50;99.90;;;;;;5026542;28;20079;-75
2022/01/22 12:03:03;;;;;;;7.72;4.30;;;4.70;99.90;;;;;;5021634;28;20029;-75
2022/01/22 12:05:29;;;;;;;8.45;3.65;;;4.30;99.90;;;;;;5025873;28;20052;-75
2022/01/22 12:08:00;;;;;;;7.60;3.65;;;4.30;99.90;;;;;;5026939;28;20487;-75
2022/01/22 12:10:42;;;;;;;9.57;3.90;;;4.20;99.90;;;;;;5031628;28;20124;-75
2022/01/22 12:16:14;;;;;;;7.93;3.25;;;4.30;99.90;;;;;;5029062;28;20104;-75
2022/01/22 12:18:47;;;;;;;5.40;2.75;;;4.20;99.90;;;;;;5027125;28;20045;-75
2022/01/22 12:21:34;;;;;;;3.47;2.38;;;4.50;99.90;;;;;;5026477;28;20021;-75
2022/01/22 12:24:03;;;;;;;4.70;2.38;;;5.20;99.90;;;;;;5028411;28;20081;-75
2022/01/22 12:26:40;;;;;;;6.90;2.50;;;4.70;99.90;;;;;;5040121;28;20431;-75
2022/01/22 12:29:35;;;;;;;3.90;1.85;;;4.50;99.90;;;;;;5038936;28;21271;-75
2022/01/22 12:32:13;;;;;;;5.75;2.13;;;4.90;99.90;;;;;;5036480;28;20051;-75
2022/01/22 12:34:58;;;;;;;5.45;2.05;;;5.20;99.90;;;;;;5037621;28;20013;-75
2022/01/22 12:37:25;;;;;;;5.22;1.65;;;5.60;99.90;;;;;;5027785;28;20021;-75
2022/01/22 12:39:54;;;;;;;3.33;1.98;;;5.60;99.90;;;;;;5025944;28;20025;-75
2022/01/22 12:42:32;;;;;;;5.13;2.00;;;5.20;99.90;;;;;;5025761;28;20025;-75
2022/01/22 12:45:00;;;;;;;2.72;1.80;;;4.80;99.90;;;;;;5026474;28;20021;-74
2022/01/22 12:47:28;;;;;;;3.78;2.10;;;4.80;99.90;;;;;;5026480;28;20025;-74
2022/01/22 12:50:06;;;;;;;3.95;1.48;;;4.90;99.90;;;;;;5026788;28;20034;-75
2022/01/22 12:52:34;;;;;;;2.10;1.58;;;4.70;99.90;;;;;;5035774;28;20032;-75
2022/01/22 12:55:01;;;;;;;2.35;1.60;;;4.50;99.90;;;;;;5030075;28;20075;-75
2022/01/22 12:57:30;;;;;;;4.35;1.90;;;4.40;99.90;;;;;;5031695;28;20021;-75
2022/01/22 13:00:08;;;;;;;4.45;1.90;;;4.40;99.90;;;;;;5020686;28;20030;-74
2022/01/22 13:02:43;;;;;;;5.05;2.38;;;4.30;99.90;;;;;;5025382;28;20033;-74
2022/01/22 13:05:11;;;;;;;5.60;2.05;;;4.40;99.90;;;;;;5022933;28;21266;-75
2022/01/22 13:07:39;;;;;;;3.88;1.77;;;4.40;99.90;;;;;;5019233;28;20101;-74
2022/01/22 13:10:07;;;;;;;4.72;2.22;;;4.40;99.90;;;;;;5026758;28;20037;-75
2022/01/22 13:12:41;;;;;;;2.50;2.05;;;4.70;99.90;;;;;;5020720;28;20123;-75
2022/01/22 13:15:10;;;;;;;5.47;2.00;;;5.50;99.90;;;;;;5024173;28;20030;-74
2022/01/22 13:17:37;;;;;;;6.47;2.30;;;5.30;99.20;;;;;;5014261;28;20079;-75
2022/01/22 13:20:06;;;;;;;2.88;1.80;;;5.30;99.80;;;;;;5027886;28;20041;-74
2022/01/22 13:22:37;;;;;;;3.78;2.08;;;5.00;99.90;;;;;;5027284;28;20102;-75
2022/01/22 13:25:11;;;;;;;2.72;2.17;;;4.80;99.90;;;;;;5025178;28;20128;-74
2022/01/22 13:27:38;;;;;;;6.57;2.25;;;4.80;99.90;;;;;;5021955;28;20063;-75
2022/01/22 13:30:10;;;;;;;7.63;2.20;;;5.40;99.90;;;;;;5025222;28;20037;-74
2022/01/22 13:32:49;;;;;;;3.15;2.00;;;5.30;99.90;;;;;;5021234;28;20057;-75
2022/01/22 13:40:49;;;;;;;3.22;1.73;;;5.10;99.90;;;;;;5018946;28;20472;-75
2022/01/22 13:48:56;;;;;;;5.50;2.13;;;4.80;99.90;;;;;;5017303;28;20056;-75
2022/01/22 13:51:22;;;;;;;4.32;2.72;;;4.70;99.90;;;;;;5024263;28;20112;-75
2022/01/22 13:53:49;;;;;;;4.25;2.05;;;5.20;99.90;;;;;;5030416;28;20017;-74
2022/01/22 13:56:17;;;;;;;3.50;2.58;;;5.20;99.90;;;;;;5020609;28;20314;-74
2022/01/22 13:58:42;;;;;;;6.18;2.60;;;5.00;99.90;;;;;;5027856;28;20033;-75
2022/01/22 14:01:32;;;;;;;4.40;2.00;;;4.90;99.90;;;;;;5028934;28;20083;-75
2022/01/22 14:04:09;;;;;;;2.83;2.13;;;4.80;99.90;;;;;;5028780;28;20049;-75
2022/01/22 14:06:35;;;;;;;3.05;2.03;;;4.70;99.90;;;;;;5028792;28;20037;-75
2022/01/22 14:09:17;;;;;;;3.90;2.60;;;5.40;99.90;;;;;;5028443;28;20414;-75
2022/01/22 14:12:23;;;;;;;4.38;2.25;;;5.30;99.90;;;;;;5029867;28;20032;-75
2022/01/22 14:15:02;;;;;;;4.88;2.10;;;5.00;99.90;;;;;;5046859;28;20643;-75
2022/01/22 14:17:37;;;;;;;2.85;2.17;;;5.00;99.90;;;;;;5046910;28;20037;-75
2022/01/22 14:20:08;;;;;;;5.57;2.85;;;5.20;99.90;;;;;;5031146;28;20036;-75
2022/01/22 14:22:55;;;;;;;7.57;3.13;;;5.40;99.90;;;;;;5048724;28;20029;-75
2022/01/22 14:25:22;;;;;;;6.72;3.95;;;5.60;99.90;;;;;;5030544;28;20122;-74
2022/01/22 14:27:59;;;;;;;8.43;3.95;;;5.70;99.90;;;;;;5047498;28;20056;-75
2022/01/22 14:30:40;;;;;;;6.18;3.10;;;5.30;99.90;;;;;;5030140;28;20025;-75
2022/01/22 14:33:07;;;;;;;4.70;2.40;;;5.30;99.90;;;;;;5046321;28;20041;-75
2022/01/22 14:35:34;;;;;;;8.52;3.35;;;5.80;99.90;;;;;;5045554;28;20029;-75
2022/01/22 14:38:53;;;;;;;9.65;3.08;;;6.00;99.90;;;;;;5047621;28;20025;-75
2022/01/22 14:46:55;;;;;;;4.28;2.63;;;5.50;99.90;;;;;;5025556;28;20030;-75
2022/01/22 14:49:54;;;;;;;6.97;2.90;;;5.60;99.90;;;;;;5037594;28;20566;-75
2022/01/22 14:52:27;;;;;;;7.47;3.67;;;5.60;99.90;;;;;;5030528;28;20057;-75
2022/01/22 14:54:57;;;;;;;7.28;4.45;;;5.80;99.90;;;;;;5007135;28;20038;-75
2022/01/22 14:57:25;;;;;;;10.02;4.25;;;5.70;99.90;;;;;;5028289;28;20040;-75
2022/01/22 14:59:51;;;;;;;10.13;4.45;;;5.60;99.90;;;;;;5025159;28;20030;-75
2022/01/22 15:02:17;;;;;;;13.05;4.57;;;5.80;99.90;;;;;;5036803;28;20072;-75
2022/01/22 15:04:43;;;;;;;10.25;4.53;;;5.90;99.90;;;;;;5010504;28;20516;-75
2022/01/22 15:07:15;;;;;;;9.35;4.32;;;5.50;99.90;;;;;;5026548;28;20164;-75